createdAt,value
2023-05-05T00:01:24.952Z,92798.38
2023-05-05T00:03:53.919Z,92808.53
2023-05-05T00:06:22.775Z,92784.72
2023-05-05T00:08:51.611Z,92777.66
2023-05-05T00:11:20.751Z,92786.44
2023-05-05T00:13:49.075Z,92797.75
2023-05-05T00:16:17.813Z,92795.09
2023-05-05T00:18:46.623Z,92792.09
2023-05-05T00:21:15.283Z,92787.31
2023-05-05T00:23:43.942Z,92793.06
2023-05-05T00:26:12.598Z,92782.44
2023-05-05T00:28:41.350Z,92790.38
2023-05-05T00:31:10.059Z,92774.53
2023-05-05T00:33:38.662Z,92793.13
2023-05-05T00:36:08.164Z,92790.66
2023-05-05T00:38:36.742Z,92794.94
2023-05-05T00:41:05.322Z,92796.44
2023-05-05T00:43:33.930Z,92773.78
2023-05-05T00:46:27.804Z,92796.69
2023-05-05T00:48:57.371Z,92799.00
2023-05-05T00:51:27.254Z,92792.59
2023-05-05T00:53:56.746Z,92796.03
2023-05-05T00:56:26.517Z,92787.66
2023-05-05T00:58:56.505Z,92778.09
2023-05-05T01:01:25.440Z,92797.66
2023-05-05T01:03:54.115Z,92780.50
2023-05-05T01:06:44.582Z,92806.28
2023-05-05T01:09:44.204Z,92797.91
2023-05-05T01:12:45.415Z,92805.47
2023-05-05T01:16:02.279Z,92799.84
2023-05-05T01:18:43.899Z,92795.25
2023-05-05T01:21:21.318Z,92784.25
2023-05-05T01:24:09.376Z,92781.97
2023-05-05T01:27:08.090Z,92809.34
2023-05-05T01:29:53.058Z,92798.31
2023-05-05T01:32:28.033Z,92791.19
2023-05-05T01:35:05.959Z,92811.44
2023-05-05T01:37:42.966Z,92788.63
2023-05-05T01:40:14.281Z,92807.31
2023-05-05T01:42:45.257Z,92802.78
2023-05-05T01:45:16.186Z,92808.91
2023-05-05T01:47:46.329Z,92809.66
2023-05-05T01:50:16.990Z,92793.81
2023-05-05T01:52:47.341Z,92815.50
2023-05-05T01:55:19.344Z,92815.97
2023-05-05T01:57:51.287Z,92815.66
2023-05-05T02:00:21.959Z,92821.03
2023-05-05T02:02:51.939Z,92823.00
2023-05-05T02:05:24.117Z,92820.31
2023-05-05T02:07:54.743Z,92833.28
2023-05-05T02:10:22.963Z,92805.53
2023-05-05T02:12:53.748Z,92829.88
2023-05-05T02:15:24.081Z,92826.88
2023-05-05T02:17:54.449Z,92807.44
2023-05-05T02:20:25.736Z,92810.13
2023-05-05T02:22:55.302Z,92804.81
2023-05-05T02:25:27.453Z,92835.25
2023-05-05T02:27:57.960Z,92837.16
2023-05-05T02:30:28.481Z,92838.69
2023-05-05T02:33:01.731Z,92843.63
2023-05-05T02:35:40.459Z,92852.38
2023-05-05T02:38:14.891Z,92857.31
2023-05-05T02:40:46.507Z,92861.44
2023-05-05T02:43:21.081Z,92848.13
2023-05-05T02:45:49.387Z,92868.69
2023-05-05T02:48:18.072Z,92849.16
2023-05-05T02:50:46.689Z,92870.09
2023-05-05T02:53:15.570Z,92879.88
2023-05-05T02:56:03.398Z,92881.75
2023-05-05T02:58:43.014Z,92881.25
2023-05-05T03:01:12.053Z,92884.59
2023-05-05T03:03:45.672Z,92887.84
2023-05-05T03:06:22.293Z,92904.59
2023-05-05T03:09:15.421Z,92894.66
2023-05-05T03:11:59.174Z,92905.13
2023-05-05T03:14:33.272Z,92892.88
2023-05-05T03:17:03.785Z,92894.31
2023-05-05T03:19:33.242Z,92915.53
2023-05-05T03:22:02.063Z,92925.47
2023-05-05T03:24:30.796Z,92931.41
2023-05-05T03:27:00.396Z,92929.75
2023-05-05T03:29:30.938Z,92930.72
2023-05-05T03:32:00.202Z,92926.28
2023-05-05T03:34:28.795Z,92943.69
2023-05-05T03:36:57.670Z,92943.38
2023-05-05T03:39:26.248Z,92946.66
2023-05-05T03:41:54.689Z,92923.72
2023-05-05T03:44:23.875Z,92930.19
2023-05-05T03:46:52.214Z,92961.81
2023-05-05T03:49:20.832Z,92962.53
2023-05-05T03:51:49.076Z,92962.94
2023-05-05T03:54:18.524Z,92967.41
2023-05-05T03:56:47.994Z,92965.56
2023-05-05T03:59:16.987Z,92967.81
2023-05-05T04:01:47.681Z,92966.22
2023-05-05T04:04:17.272Z,92959.59
2023-05-05T04:06:45.457Z,92982.66
2023-05-05T04:09:14.123Z,92975.31
2023-05-05T04:11:42.754Z,92977.53
2023-05-05T04:14:11.469Z,92978.53
2023-05-05T04:16:40.100Z,92985.66
2023-05-05T04:19:08.802Z,92981.84
2023-05-05T04:21:37.615Z,92979.00
2023-05-05T04:24:06.500Z,92968.38
2023-05-05T04:26:35.068Z,92970.88
2023-05-05T04:29:03.723Z,92971.44
2023-05-05T04:31:33.372Z,92989.66
2023-05-05T04:34:02.135Z,92999.09
2023-05-05T04:36:30.789Z,92995.09
2023-05-05T04:38:59.348Z,93005.88
2023-05-05T04:41:30.111Z,92987.41
2023-05-05T04:43:58.934Z,93005.81
2023-05-05T04:46:27.569Z,93005.69
2023-05-05T04:48:56.228Z,93004.22
2023-05-05T04:51:24.851Z,93014.53
2023-05-05T04:53:53.129Z,93013.34
2023-05-05T04:56:21.424Z,93018.13
2023-05-05T04:58:52.183Z,92997.66
2023-05-05T05:01:20.167Z,93017.00
2023-05-05T05:03:48.847Z,93026.72
2023-05-05T05:06:18.015Z,93019.56
2023-05-05T05:08:46.602Z,93027.50
2023-05-05T05:11:15.262Z,93035.97
2023-05-05T05:13:43.878Z,93012.25
2023-05-05T05:16:12.947Z,93031.56
2023-05-05T05:18:41.648Z,93038.22
2023-05-05T05:21:10.280Z,93032.03
2023-05-05T05:23:38.946Z,93028.44
2023-05-05T05:26:07.877Z,93026.31
2023-05-05T05:28:36.453Z,93030.16
2023-05-05T05:31:06.259Z,93033.09
2023-05-05T05:33:34.933Z,93042.91
2023-05-05T05:36:03.220Z,93033.31
2023-05-05T05:38:31.832Z,93035.41
2023-05-05T05:41:00.396Z,93045.88
2023-05-05T05:43:28.998Z,93048.44
2023-05-05T05:45:57.799Z,93048.13
2023-05-05T05:48:29.811Z,93044.13
2023-05-05T05:50:58.619Z,93029.88
2023-05-05T05:53:27.316Z,93053.88
2023-05-05T05:55:55.951Z,93047.63
2023-05-05T05:58:24.720Z,93055.00
2023-05-05T06:00:53.373Z,93051.25
2023-05-05T06:03:23.206Z,93044.00
2023-05-05T06:05:53.187Z,93047.13
2023-05-05T06:08:23.051Z,93033.22
2023-05-05T06:10:53.244Z,93045.53
2023-05-05T06:13:21.988Z,93055.97
2023-05-05T06:15:50.737Z,93057.94
2023-05-05T06:18:19.490Z,93060.03
2023-05-05T06:20:51.593Z,93060.66
2023-05-05T06:23:20.524Z,93051.38
2023-05-05T06:25:49.375Z,93053.78
2023-05-05T06:28:17.910Z,93066.25
2023-05-05T06:30:46.524Z,93065.63
2023-05-05T06:33:14.990Z,93071.44
2023-05-05T06:35:43.273Z,93052.03
2023-05-05T06:38:12.109Z,93069.59
2023-05-05T06:40:40.734Z,93078.81
2023-05-05T06:43:09.621Z,93078.72
2023-05-05T06:45:38.306Z,93070.28
2023-05-05T06:48:08.007Z,93078.56
2023-05-05T06:50:36.296Z,93079.75
2023-05-05T06:53:04.916Z,93080.34
2023-05-05T06:55:33.207Z,93083.03
2023-05-05T06:58:01.854Z,93094.19
2023-05-05T07:00:30.765Z,93073.22
2023-05-05T07:03:00.394Z,93092.22
2023-05-05T07:05:30.280Z,93090.09
2023-05-05T07:08:00.364Z,93093.06
2023-05-05T07:10:29.531Z,93093.06
2023-05-05T07:12:58.227Z,93072.25
2023-05-05T07:15:29.276Z,93069.63
2023-05-05T07:17:58.863Z,93089.38
2023-05-05T07:20:27.793Z,93089.47
2023-05-05T07:22:55.928Z,93092.94
2023-05-05T07:25:24.652Z,93092.03
2023-05-05T07:27:53.279Z,93090.97
2023-05-05T07:30:22.089Z,93073.63
2023-05-05T07:32:52.539Z,93092.19
2023-05-05T07:35:21.202Z,93102.97
2023-05-05T07:37:49.756Z,93076.41
2023-05-05T07:40:18.129Z,93070.84
2023-05-05T07:42:48.765Z,93098.03
2023-05-05T07:45:17.392Z,93096.50
2023-05-05T07:47:46.055Z,93080.41
2023-05-05T07:50:14.948Z,93086.00
2023-05-05T07:52:50.018Z,93116.66
2023-05-05T07:55:24.975Z,93115.25
2023-05-05T07:57:53.414Z,93112.50
2023-05-05T08:00:22.664Z,93093.84
2023-05-05T08:02:51.366Z,93095.06
2023-05-05T08:05:19.948Z,93121.97
2023-05-05T08:07:48.543Z,93084.53
2023-05-05T08:10:17.336Z,93117.13
2023-05-05T08:12:45.967Z,93116.47
2023-05-05T08:15:14.696Z,93112.31
2023-05-05T08:17:54.312Z,93120.50
2023-05-05T08:20:23.482Z,93123.13
2023-05-05T08:22:53.013Z,93118.97
2023-05-05T08:25:21.607Z,93128.88
2023-05-05T08:27:50.229Z,93125.22
2023-05-05T08:30:22.136Z,93120.16
2023-05-05T08:32:50.342Z,93122.34
2023-05-05T08:35:18.937Z,93130.22
2023-05-05T08:37:47.273Z,93137.44
2023-05-05T08:40:16.301Z,93136.22
2023-05-05T08:42:47.172Z,93155.13
2023-05-05T08:45:16.206Z,93136.91
2023-05-05T08:47:45.005Z,93158.28
2023-05-05T08:50:13.979Z,93153.34
2023-05-05T08:52:48.652Z,93147.19
2023-05-05T08:55:22.345Z,93147.72
2023-05-05T08:57:59.851Z,93149.38
2023-05-05T09:00:29.315Z,93147.25
2023-05-05T09:03:02.705Z,93152.50
2023-05-05T09:05:31.371Z,93155.41
2023-05-05T09:08:00.574Z,93125.69
2023-05-05T09:10:30.776Z,93132.41
2023-05-05T09:12:59.451Z,93154.66
2023-05-05T09:15:29.638Z,93147.94
2023-05-05T09:18:03.140Z,93151.06
2023-05-05T09:20:39.367Z,93157.59
2023-05-05T09:23:22.152Z,93134.34
2023-05-05T09:26:05.855Z,93150.69
2023-05-05T09:28:34.535Z,93157.97
2023-05-05T09:31:18.094Z,93160.63
2023-05-05T09:33:47.708Z,93155.06
2023-05-05T09:36:16.323Z,93152.78
2023-05-05T09:39:04.785Z,93147.41
2023-05-05T09:41:44.638Z,93169.94
2023-05-05T09:44:18.819Z,93160.53
2023-05-05T09:46:56.602Z,93169.97
2023-05-05T09:49:26.648Z,93162.09
2023-05-05T09:51:56.347Z,93170.31
2023-05-05T09:54:28.669Z,93168.16
2023-05-05T09:56:58.680Z,93151.78
2023-05-05T09:59:27.927Z,93166.75
2023-05-05T10:02:13.220Z,93159.34
2023-05-05T10:04:42.195Z,93179.25
2023-05-05T10:07:25.973Z,93171.53
2023-05-05T10:09:54.541Z,93150.25
2023-05-05T10:12:23.323Z,93174.31
2023-05-05T10:14:57.552Z,93162.09
2023-05-05T10:17:29.698Z,93182.78
2023-05-05T10:20:00.768Z,93190.47
2023-05-05T10:22:34.925Z,93186.63
2023-05-05T10:25:04.994Z,93183.97
2023-05-05T10:27:41.441Z,93188.88
2023-05-05T10:30:25.534Z,93186.41
2023-05-05T10:33:13.195Z,93195.34
2023-05-05T10:35:48.991Z,93159.97
2023-05-05T10:38:19.060Z,93172.63
2023-05-05T10:40:50.111Z,93183.41
2023-05-05T10:43:19.271Z,93205.75
2023-05-05T10:45:48.219Z,93195.72
2023-05-05T10:48:29.421Z,93212.38
2023-05-05T10:51:18.855Z,93185.28
2023-05-05T10:54:05.815Z,93211.75
2023-05-05T10:56:37.426Z,93218.84
2023-05-05T10:59:38.515Z,93209.13
2023-05-05T11:02:30.829Z,93218.31
2023-05-05T11:05:18.939Z,93203.16
2023-05-05T11:07:48.548Z,93224.31
2023-05-05T11:10:19.248Z,93231.19
2023-05-05T11:13:11.026Z,93237.34
2023-05-05T11:15:39.687Z,93235.94
2023-05-05T11:18:08.607Z,93230.34
2023-05-05T11:20:37.313Z,93237.59
2023-05-05T11:23:06.973Z,93230.81
2023-05-05T11:25:38.627Z,93231.47
2023-05-05T11:28:11.335Z,93252.03
2023-05-05T11:31:00.230Z,93241.34
2023-05-05T11:33:33.202Z,93241.28
2023-05-05T11:36:04.243Z,93236.13
2023-05-05T11:39:01.580Z,93248.34
2023-05-05T11:41:35.788Z,93250.78
2023-05-05T11:44:16.064Z,93259.41
2023-05-05T11:46:54.397Z,93258.09
2023-05-05T11:49:36.681Z,93260.13
2023-05-05T11:52:16.090Z,93264.50
2023-05-05T11:54:51.401Z,93247.97
2023-05-05T11:57:28.449Z,93270.59
2023-05-05T12:00:01.667Z,93269.16
2023-05-05T12:02:32.434Z,93275.16
2023-05-05T12:05:02.232Z,93281.38
2023-05-05T12:07:34.936Z,93282.56
2023-05-05T12:10:03.863Z,93271.03
2023-05-05T12:12:41.892Z,93270.34
2023-05-05T12:15:11.253Z,93275.19
2023-05-05T12:17:47.177Z,93280.22
2023-05-05T12:20:15.985Z,93277.72
2023-05-05T12:22:45.256Z,93283.13
2023-05-05T12:25:13.924Z,93288.16
2023-05-05T12:27:42.987Z,93284.28
2023-05-05T12:30:18.104Z,93292.69
2023-05-05T12:32:48.654Z,93293.00
2023-05-05T12:35:18.232Z,93295.41
2023-05-05T12:37:48.258Z,93298.91
2023-05-05T12:40:45.120Z,93294.25
2023-05-05T12:43:32.850Z,93294.53
2023-05-05T12:46:09.739Z,93295.31
2023-05-05T12:48:40.679Z,93297.06
2023-05-05T12:51:18.302Z,93306.25
2023-05-05T12:53:48.732Z,93308.66
2023-05-05T12:56:46.259Z,93312.34
2023-05-05T12:59:24.614Z,93310.03
2023-05-05T13:01:55.806Z,93313.91
2023-05-05T13:04:29.355Z,93309.25
2023-05-05T13:07:13.025Z,93292.59
2023-05-05T13:09:42.109Z,93311.38
2023-05-05T13:12:13.358Z,93314.66
2023-05-05T13:14:42.669Z,93296.09
2023-05-05T13:17:12.970Z,93319.50
2023-05-05T13:19:47.625Z,93324.91
2023-05-05T13:22:16.023Z,93328.81
2023-05-05T13:24:51.756Z,93302.66
2023-05-05T13:27:21.959Z,93314.09
2023-05-05T13:29:50.663Z,93312.16
2023-05-05T13:32:19.234Z,93333.44
2023-05-05T13:34:48.039Z,93342.25
2023-05-05T13:37:16.902Z,93340.50
2023-05-05T13:39:48.355Z,93341.94
2023-05-05T13:42:16.899Z,93346.00
2023-05-05T13:44:45.585Z,93346.06
2023-05-05T13:47:15.072Z,93349.53
2023-05-05T13:49:44.657Z,93340.31
2023-05-05T13:52:13.326Z,93352.09
2023-05-05T13:54:42.205Z,93344.44
2023-05-05T13:57:12.479Z,93354.91
2023-05-05T13:59:42.073Z,93359.72
2023-05-05T14:02:14.196Z,93359.81
2023-05-05T14:04:42.903Z,93357.66
2023-05-05T14:07:11.608Z,93363.13
2023-05-05T14:09:40.247Z,93353.31
2023-05-05T14:12:08.417Z,93353.22
2023-05-05T14:14:37.051Z,93360.72
2023-05-05T14:17:05.850Z,93352.25
2023-05-05T14:19:34.807Z,93360.59
2023-05-05T14:22:02.721Z,93370.94
2023-05-05T14:24:31.385Z,93348.91
2023-05-05T14:27:01.245Z,93337.84
2023-05-05T14:29:29.460Z,93356.75
2023-05-05T14:31:57.914Z,93340.38
2023-05-05T14:34:25.988Z,93367.28
2023-05-05T14:36:55.586Z,93351.06
2023-05-05T14:39:24.427Z,93364.09
2023-05-05T14:41:53.010Z,93372.16
2023-05-05T14:44:21.830Z,93350.09
2023-05-05T14:46:51.105Z,93370.50
2023-05-05T14:49:19.851Z,93378.91
2023-05-05T14:51:48.743Z,93361.38
2023-05-05T14:54:27.432Z,93382.31
2023-05-05T14:56:57.979Z,93382.66
2023-05-05T14:59:28.186Z,93388.22
2023-05-05T15:01:57.875Z,93386.53
2023-05-05T15:04:26.769Z,93384.69
2023-05-05T15:06:55.457Z,93381.44
2023-05-05T15:09:23.655Z,93381.78
2023-05-05T15:11:51.961Z,93382.84
2023-05-05T15:14:20.641Z,93386.72
2023-05-05T15:16:49.152Z,93364.94
2023-05-05T15:19:17.270Z,93381.63
2023-05-05T15:21:45.821Z,93381.00
2023-05-05T15:24:14.402Z,93379.72
2023-05-05T15:26:42.544Z,93387.69
2023-05-05T15:29:11.170Z,93388.31
2023-05-05T15:31:39.752Z,93388.00
2023-05-05T15:34:08.381Z,93392.47
2023-05-05T15:36:37.155Z,93398.72
2023-05-05T15:39:05.215Z,93384.59
2023-05-05T15:41:35.464Z,93395.06
2023-05-05T15:44:05.852Z,93390.31
2023-05-05T15:46:34.912Z,93377.56
2023-05-05T15:49:03.611Z,93395.56
2023-05-05T15:51:33.630Z,93393.56
2023-05-05T15:54:02.319Z,93394.44
2023-05-05T15:56:32.051Z,93392.16
2023-05-05T15:59:00.762Z,93392.13
2023-05-05T16:01:29.653Z,93390.03
2023-05-05T16:04:00.148Z,93389.94
2023-05-05T16:06:30.410Z,93394.50
2023-05-05T16:08:59.831Z,93376.84
2023-05-05T16:11:28.908Z,93394.09
2023-05-05T16:13:57.528Z,93392.56
2023-05-05T16:16:25.796Z,93391.44
2023-05-05T16:18:54.295Z,93390.81
2023-05-05T16:21:22.867Z,93387.88
2023-05-05T16:23:51.490Z,93391.78
2023-05-05T16:26:20.091Z,93385.66
2023-05-05T16:28:48.731Z,93404.06
2023-05-05T16:31:17.343Z,93405.88
2023-05-05T16:33:46.073Z,93407.28
2023-05-05T16:36:14.796Z,93404.22
2023-05-05T16:38:44.445Z,93410.28
2023-05-05T16:41:13.145Z,93401.00
2023-05-05T16:43:42.259Z,93384.72
2023-05-05T16:46:10.853Z,93402.59
2023-05-05T16:48:39.499Z,93389.59
2023-05-05T16:51:09.183Z,93397.84
2023-05-05T16:53:37.755Z,93381.91
2023-05-05T16:56:06.664Z,93398.84
2023-05-05T16:58:35.650Z,93396.25
2023-05-05T17:01:05.479Z,93381.69
2023-05-05T17:03:34.098Z,93402.00
2023-05-05T17:06:02.684Z,93390.25
2023-05-05T17:08:30.645Z,93400.97
2023-05-05T17:10:59.872Z,93403.16
2023-05-05T17:13:28.490Z,93375.19
2023-05-05T17:15:58.855Z,93397.19
2023-05-05T17:18:27.730Z,93399.78
2023-05-05T17:20:55.870Z,93391.97
2023-05-05T17:23:24.690Z,93406.53
2023-05-05T17:25:52.879Z,93376.03
2023-05-05T17:28:21.745Z,93394.06
2023-05-05T17:30:49.873Z,93394.97
2023-05-05T17:33:22.205Z,93393.88
2023-05-05T17:35:50.561Z,93397.00
2023-05-05T17:38:19.146Z,93393.88
2023-05-05T17:40:48.094Z,93391.03
2023-05-05T17:43:16.463Z,93392.34
2023-05-05T17:45:45.569Z,93394.69
2023-05-05T17:48:14.193Z,93372.53
2023-05-05T17:50:44.939Z,93389.06
2023-05-05T17:53:13.698Z,93393.69
2023-05-05T17:55:46.613Z,93385.53
2023-05-05T17:58:15.304Z,93371.50
2023-05-05T18:00:44.388Z,93365.81
2023-05-05T18:03:13.156Z,93390.50
2023-05-05T18:05:41.959Z,93382.63
2023-05-05T18:08:10.655Z,93358.91
2023-05-05T18:10:39.309Z,93385.03
2023-05-05T18:13:08.004Z,93387.97
2023-05-05T18:15:36.793Z,93380.41
2023-05-05T18:18:05.604Z,93384.63
2023-05-05T18:20:34.233Z,93362.47
2023-05-05T18:23:02.881Z,93375.59
2023-05-05T18:25:31.190Z,93378.19
2023-05-05T18:27:59.849Z,93356.88
2023-05-05T18:30:28.542Z,93349.16
2023-05-05T18:32:57.891Z,93360.78
2023-05-05T18:35:26.829Z,93350.63
2023-05-05T18:37:56.462Z,93367.41
2023-05-05T18:40:25.132Z,93370.91
2023-05-05T18:42:53.981Z,93369.91
2023-05-05T18:45:22.261Z,93380.00
2023-05-05T18:47:50.844Z,93373.63
2023-05-05T18:50:19.427Z,93369.91
2023-05-05T18:52:48.034Z,93350.22
2023-05-05T18:55:16.180Z,93362.53
2023-05-05T18:57:44.441Z,93332.25
2023-05-05T19:00:14.250Z,93360.19
2023-05-05T19:02:42.882Z,93357.06
2023-05-05T19:05:11.894Z,93368.34
2023-05-05T19:07:42.312Z,93375.63
2023-05-05T19:10:11.732Z,93364.81
2023-05-05T19:12:40.016Z,93357.00
2023-05-05T19:15:09.336Z,93354.06
2023-05-05T19:17:38.365Z,93358.91
2023-05-05T19:20:07.704Z,93373.84
2023-05-05T19:22:36.364Z,93382.63
2023-05-05T19:25:05.351Z,93366.38
2023-05-05T19:27:34.859Z,93357.16
2023-05-05T19:30:03.455Z,93363.25
2023-05-05T19:32:31.737Z,93372.41
2023-05-05T19:35:00.553Z,93348.44
2023-05-05T19:37:29.444Z,93358.84
2023-05-05T19:39:58.113Z,93377.84
2023-05-05T19:42:27.512Z,93367.81
2023-05-05T19:44:56.210Z,93353.44
2023-05-05T19:47:25.008Z,93360.28
2023-05-05T19:49:53.673Z,93348.09
2023-05-05T19:52:24.997Z,93344.38
2023-05-05T19:54:54.213Z,93346.63
2023-05-05T19:57:22.368Z,93343.47
2023-05-05T19:59:51.263Z,93361.59
2023-05-05T20:02:21.500Z,93358.91
2023-05-05T20:04:50.968Z,93353.88
2023-05-05T20:07:20.086Z,93331.97
2023-05-05T20:09:48.253Z,93322.19
2023-05-05T20:12:18.901Z,93354.09
2023-05-05T20:14:48.217Z,93355.94
2023-05-05T20:17:19.025Z,93359.56
2023-05-05T20:19:49.121Z,93343.72
2023-05-05T20:22:17.113Z,93326.44
2023-05-05T20:24:45.767Z,93344.28
2023-05-05T20:27:14.379Z,93344.44
2023-05-05T20:29:42.965Z,93360.03
2023-05-05T20:32:11.525Z,93332.31
2023-05-05T20:34:40.689Z,93328.56
2023-05-05T20:37:10.061Z,93360.25
2023-05-05T20:39:39.679Z,93337.88
2023-05-05T20:42:08.194Z,93358.16
2023-05-05T20:44:36.724Z,93357.97
2023-05-05T20:47:05.950Z,93323.91
2023-05-05T20:49:34.718Z,93346.75
2023-05-05T20:52:03.543Z,93355.50
2023-05-05T20:54:35.039Z,93332.91
2023-05-05T20:57:05.050Z,93331.56
2023-05-05T20:59:33.697Z,93347.28
2023-05-05T21:02:02.500Z,93348.81
2023-05-05T21:04:31.280Z,93344.13
2023-05-05T21:06:59.811Z,93316.81
2023-05-05T21:09:28.452Z,93324.84
2023-05-05T21:11:56.635Z,93327.91
2023-05-05T21:14:25.284Z,93347.03
2023-05-05T21:16:53.716Z,93346.91
2023-05-05T21:19:22.541Z,93333.78
2023-05-05T21:21:51.368Z,93341.03
2023-05-05T21:24:19.931Z,93344.25
2023-05-05T21:26:48.579Z,93321.69
2023-05-05T21:29:17.219Z,93337.06
2023-05-05T21:31:45.416Z,93339.06
2023-05-05T21:34:14.051Z,93338.63
2023-05-05T21:36:42.581Z,93337.81
2023-05-05T21:39:11.575Z,93317.19
2023-05-05T21:41:40.199Z,93331.63
2023-05-05T21:44:08.830Z,93339.91
2023-05-05T21:46:37.511Z,93345.66
2023-05-05T21:49:15.211Z,93347.97
2023-05-05T21:51:44.812Z,93338.56
2023-05-05T21:54:13.973Z,93320.34
2023-05-05T21:56:42.614Z,93322.56
2023-05-05T21:59:11.563Z,93339.44
2023-05-05T22:01:40.701Z,93328.47
2023-05-05T22:04:09.968Z,93330.44
2023-05-05T22:06:38.554Z,93335.53
2023-05-05T22:09:07.087Z,93308.25
2023-05-05T22:11:35.727Z,93314.91
2023-05-05T22:14:04.331Z,93314.72
2023-05-05T22:16:33.018Z,93330.50
2023-05-05T22:19:01.597Z,93318.78
2023-05-05T22:21:30.153Z,93313.88
2023-05-05T22:23:59.144Z,93332.31
2023-05-05T22:26:27.712Z,93301.00
2023-05-05T22:28:56.360Z,93329.19
2023-05-05T22:31:24.598Z,93333.53
2023-05-05T22:33:53.277Z,93311.00
2023-05-05T22:36:21.452Z,93325.81
2023-05-05T22:38:49.564Z,93327.81
2023-05-05T22:41:18.496Z,93322.44
2023-05-05T22:43:47.070Z,93330.16
2023-05-05T22:46:16.383Z,93322.22
2023-05-05T22:48:44.924Z,93297.53
2023-05-05T22:51:13.569Z,93290.66
2023-05-05T22:53:42.401Z,93315.75
2023-05-05T22:56:10.752Z,93315.94
2023-05-05T22:58:39.609Z,93302.03
2023-05-05T23:01:09.057Z,93312.44
2023-05-05T23:03:37.570Z,93292.47
2023-05-05T23:06:06.311Z,93309.84
2023-05-05T23:08:34.552Z,93306.81
2023-05-05T23:11:03.204Z,93304.69
2023-05-05T23:13:31.868Z,93316.91
2023-05-05T23:16:00.488Z,93305.03
2023-05-05T23:18:29.020Z,93306.84
2023-05-05T23:20:57.605Z,93317.69
2023-05-05T23:23:29.193Z,93311.88
2023-05-05T23:25:57.780Z,93318.63
2023-05-05T23:28:26.568Z,93307.34
2023-05-05T23:30:54.538Z,93316.03
2023-05-05T23:33:22.905Z,93320.66
2023-05-05T23:35:51.619Z,93293.88
2023-05-05T23:38:20.180Z,93332.16
2023-05-05T23:40:48.805Z,93336.88
2023-05-05T23:43:16.860Z,93320.03
2023-05-05T23:45:45.174Z,93303.84
2023-05-05T23:48:13.765Z,93332.16
2023-05-05T23:50:42.608Z,93322.91
2023-05-05T23:53:11.902Z,93330.06
2023-05-05T23:55:40.495Z,93332.84
2023-05-05T23:58:09.124Z,93338.41
